createdAt,value
2022-09-29T00:02:05.057Z,9.60
2022-09-29T00:04:34.069Z,10.30
2022-09-29T00:07:02.724Z,11.70
2022-09-29T00:09:31.697Z,11.30
2022-09-29T00:12:00.287Z,12.30
2022-09-29T00:14:29.142Z,8.70
2022-09-29T00:16:57.550Z,9.10
2022-09-29T00:19:28.394Z,10.50
2022-09-29T00:21:57.481Z,11.00
2022-09-29T00:24:26.452Z,10.40
2022-09-29T00:26:54.954Z,11.10
2022-09-29T00:29:23.988Z,8.30
2022-09-29T00:31:52.728Z,11.70
2022-09-29T00:34:21.335Z,9.50
2022-09-29T00:36:49.857Z,10.70
2022-09-29T00:39:19.121Z,8.70
2022-09-29T00:41:47.573Z,11.70
2022-09-29T00:44:55.481Z,9.00
2022-09-29T00:47:25.493Z,9.40
2022-09-29T00:49:58.939Z,7.40
2022-09-29T00:52:30.822Z,6.40
2022-09-29T00:55:05.098Z,7.80
2022-09-29T00:57:40.700Z,8.70
2022-09-29T01:00:15.259Z,7.40
2022-09-29T01:02:48.937Z,8.90
2022-09-29T01:05:24.313Z,8.70
2022-09-29T01:07:53.786Z,9.40
2022-09-29T01:10:23.269Z,11.70
2022-09-29T01:12:51.818Z,7.60
2022-09-29T01:15:22.972Z,9.90
2022-09-29T01:17:53.291Z,10.10
2022-09-29T01:20:25.237Z,11.40
2022-09-29T01:23:32.049Z,9.10
2022-09-29T01:26:24.399Z,8.60
2022-09-29T01:29:31.915Z,12.40
2022-09-29T01:32:11.444Z,14.40
2022-09-29T01:34:48.964Z,12.30
2022-09-29T01:37:27.877Z,14.70
2022-09-29T01:40:07.847Z,12.30
2022-09-29T01:42:43.988Z,14.40
2022-09-29T01:45:18.853Z,14.30
2022-09-29T01:47:52.379Z,13.30
2022-09-29T01:50:27.238Z,11.20
2022-09-29T01:53:01.144Z,8.70
2022-09-29T01:55:36.304Z,9.90
2022-09-29T01:58:09.485Z,11.10
2022-09-29T02:00:48.797Z,12.50
2022-09-29T02:03:21.780Z,10.80
2022-09-29T02:05:53.775Z,9.10
2022-09-29T02:08:32.114Z,10.80
2022-09-29T02:13:35.969Z,13.30
2022-09-29T02:16:12.971Z,8.70
2022-09-29T02:18:48.213Z,8.60
2022-09-29T02:21:17.365Z,9.80
2022-09-29T02:23:45.887Z,10.30
2022-09-29T02:26:17.304Z,11.50
2022-09-29T02:28:46.087Z,8.30
2022-09-29T02:31:18.260Z,10.50
2022-09-29T02:33:46.986Z,10.70
2022-09-29T02:36:25.461Z,10.90
2022-09-29T02:39:02.835Z,8.10
2022-09-29T02:41:43.597Z,13.10
2022-09-29T02:44:28.937Z,8.80
2022-09-29T02:47:17.603Z,8.10
2022-09-29T02:50:01.601Z,9.10
2022-09-29T02:52:37.711Z,9.90
2022-09-29T02:55:14.399Z,13.10
2022-09-29T02:57:51.422Z,9.60
2022-09-29T03:00:21.955Z,10.40
2022-09-29T03:02:50.290Z,9.50
2022-09-29T03:05:22.053Z,9.40
2022-09-29T03:07:50.553Z,9.00
2022-09-29T03:10:19.809Z,9.30
2022-09-29T03:12:49.138Z,7.40
2022-09-29T03:15:18.654Z,10.20
2022-09-29T03:17:47.551Z,9.00
2022-09-29T03:20:17.569Z,11.40
2022-09-29T03:22:45.855Z,12.50
2022-09-29T03:25:15.645Z,11.10
2022-09-29T03:27:46.293Z,10.70
2022-09-29T03:30:17.722Z,10.40
2022-09-29T03:32:46.394Z,11.20
2022-09-29T03:35:16.399Z,14.00
2022-09-29T03:37:45.118Z,12.70
2022-09-29T03:40:14.935Z,9.90
2022-09-29T03:42:47.072Z,9.10
2022-09-29T03:45:17.327Z,11.90
2022-09-29T03:48:10.244Z,11.30
2022-09-29T03:50:40.063Z,14.00
2022-09-29T03:53:08.919Z,17.00
2022-09-29T03:55:41.588Z,13.60
2022-09-29T03:58:20.065Z,14.20
2022-09-29T04:00:49.915Z,12.00
2022-09-29T04:03:20.414Z,13.20
2022-09-29T04:05:50.414Z,12.60
2022-09-29T04:08:19.473Z,10.90
2022-09-29T04:10:51.522Z,12.80
2022-09-29T04:13:22.030Z,12.40
2022-09-29T04:15:52.911Z,15.80
2022-09-29T04:18:21.813Z,15.10
2022-09-29T04:20:54.726Z,14.50
2022-09-29T04:23:25.115Z,13.10
2022-09-29T04:25:54.091Z,13.10
2022-09-29T04:28:22.767Z,12.70
2022-09-29T04:30:51.606Z,12.70
2022-09-29T04:33:31.296Z,13.10
2022-09-29T04:36:10.187Z,10.40
2022-09-29T04:38:38.683Z,13.20
2022-09-29T04:41:08.919Z,11.60
2022-09-29T04:43:38.053Z,15.60
2022-09-29T04:46:11.099Z,13.80
2022-09-29T04:48:45.421Z,14.50
2022-09-29T04:51:17.119Z,14.70
2022-09-29T04:53:46.178Z,13.00
2022-09-29T04:56:26.282Z,12.70
2022-09-29T05:01:40.042Z,12.30
2022-09-29T05:04:10.161Z,16.10
2022-09-29T05:06:39.153Z,11.60
2022-09-29T05:09:08.733Z,13.40
2022-09-29T05:11:38.419Z,12.70
2022-09-29T05:14:10.556Z,15.00
2022-09-29T05:16:42.191Z,11.90
2022-09-29T05:19:11.110Z,16.30
2022-09-29T05:21:41.088Z,14.80
2022-09-29T05:24:10.588Z,15.40
2022-09-29T05:26:39.509Z,13.10
2022-09-29T05:29:08.034Z,10.20
2022-09-29T05:31:41.707Z,12.30
2022-09-29T05:34:15.967Z,14.70
2022-09-29T05:36:47.565Z,14.20
2022-09-29T05:39:20.549Z,17.80
2022-09-29T05:41:50.294Z,12.60
2022-09-29T05:44:18.969Z,11.50
2022-09-29T05:46:53.648Z,13.70
2022-09-29T05:49:33.864Z,12.50
2022-09-29T05:52:02.696Z,13.50
2022-09-29T05:54:31.343Z,11.40
2022-09-29T05:56:59.940Z,11.40
2022-09-29T05:59:28.837Z,11.40
2022-09-29T06:01:57.860Z,14.20
2022-09-29T06:04:27.585Z,10.50
2022-09-29T06:06:57.002Z,11.10
2022-09-29T06:09:27.146Z,11.20
2022-09-29T06:11:58.745Z,12.80
2022-09-29T06:14:27.934Z,13.70
2022-09-29T06:16:56.958Z,11.20
2022-09-29T06:19:25.645Z,13.60
2022-09-29T06:21:57.305Z,12.50
2022-09-29T06:24:27.297Z,13.30
2022-09-29T06:26:56.075Z,14.90
2022-09-29T06:29:24.841Z,14.10
2022-09-29T06:31:58.237Z,16.30
2022-09-29T06:34:28.974Z,14.60
2022-09-29T06:37:17.864Z,15.80
2022-09-29T06:39:56.211Z,12.80
2022-09-29T06:42:28.796Z,10.30
2022-09-29T06:45:01.491Z,11.20
2022-09-29T06:47:32.258Z,12.40
2022-09-29T06:50:14.231Z,11.00
2022-09-29T06:53:04.062Z,8.70
2022-09-29T06:55:33.301Z,15.60
2022-09-29T06:58:04.558Z,11.10
2022-09-29T07:00:35.799Z,11.20
2022-09-29T07:03:07.495Z,12.70
2022-09-29T07:05:39.633Z,17.10
2022-09-29T07:08:08.886Z,13.60
2022-09-29T07:10:39.918Z,11.50
2022-09-29T07:13:09.447Z,8.00
2022-09-29T07:15:41.100Z,9.40
2022-09-29T07:18:10.398Z,11.00
2022-09-29T07:20:40.235Z,13.90
2022-09-29T07:23:11.271Z,9.70
2022-09-29T07:25:51.565Z,13.30
2022-09-29T07:28:21.543Z,10.10
2022-09-29T07:31:13.084Z,7.80
2022-09-29T07:33:46.324Z,10.20
2022-09-29T07:39:27.800Z,10.70
2022-09-29T07:42:06.121Z,11.50
2022-09-29T07:44:52.037Z,7.70
2022-09-29T07:47:21.373Z,10.20
2022-09-29T07:49:50.151Z,8.90
2022-09-29T07:52:20.594Z,12.00
2022-09-29T07:54:52.650Z,12.10
2022-09-29T07:57:22.742Z,15.40
2022-09-29T07:59:54.106Z,10.00
2022-09-29T08:02:26.374Z,10.90
2022-09-29T08:05:00.649Z,12.60
2022-09-29T08:07:36.299Z,13.80
2022-09-29T08:10:17.381Z,10.60
2022-09-29T08:13:07.543Z,12.50
2022-09-29T08:15:37.300Z,7.60
2022-09-29T08:18:07.220Z,10.30
2022-09-29T08:20:40.237Z,10.10
2022-09-29T08:23:08.742Z,8.50
2022-09-29T08:25:37.567Z,8.40
2022-09-29T08:28:06.043Z,12.50
2022-09-29T08:30:34.815Z,13.10
2022-09-29T08:33:03.979Z,10.80
2022-09-29T08:35:32.544Z,9.80
2022-09-29T08:38:00.935Z,11.00
2022-09-29T08:40:31.584Z,10.00
2022-09-29T08:43:11.073Z,10.30
2022-09-29T08:45:59.430Z,9.40
2022-09-29T08:48:42.793Z,10.10
2022-09-29T08:51:38.785Z,9.20
2022-09-29T08:54:33.685Z,9.60
2022-09-29T08:57:06.132Z,9.50
2022-09-29T08:59:34.728Z,10.90
2022-09-29T09:02:40.822Z,8.80
2022-09-29T09:05:21.564Z,11.50
2022-09-29T09:08:03.501Z,9.30
2022-09-29T09:10:44.064Z,8.30
2022-09-29T09:13:31.395Z,9.90
2022-09-29T09:16:17.794Z,11.10
2022-09-29T09:19:10.346Z,11.00
2022-09-29T09:21:43.759Z,9.70
2022-09-29T09:24:24.757Z,6.20
2022-09-29T09:26:56.675Z,9.30
2022-09-29T09:29:37.394Z,8.20
2022-09-29T09:32:14.227Z,12.30
2022-09-29T09:34:47.830Z,11.80
2022-09-29T09:37:23.675Z,7.60
2022-09-29T09:40:06.285Z,8.10
2022-09-29T09:42:39.096Z,11.30
2022-09-29T09:45:14.480Z,6.90
2022-09-29T09:47:49.189Z,8.10
2022-09-29T09:50:24.928Z,7.60
2022-09-29T09:52:56.681Z,10.10
2022-09-29T09:55:36.177Z,6.40
2022-09-29T09:58:25.330Z,6.90
2022-09-29T10:00:58.109Z,9.90
2022-09-29T10:03:29.443Z,7.80
2022-09-29T10:05:59.409Z,6.70
2022-09-29T10:08:30.544Z,9.40
2022-09-29T10:10:59.931Z,9.40
2022-09-29T10:13:30.319Z,10.00
2022-09-29T10:16:03.703Z,8.80
2022-09-29T10:18:39.772Z,8.40
2022-09-29T10:21:21.611Z,10.30
2022-09-29T10:23:52.914Z,8.60
2022-09-29T10:26:26.062Z,6.80
2022-09-29T10:28:58.462Z,9.30
2022-09-29T10:31:31.454Z,8.80
2022-09-29T10:34:02.748Z,8.50
2022-09-29T10:36:48.707Z,7.40
2022-09-29T10:39:40.373Z,9.00
2022-09-29T10:42:26.839Z,8.00
2022-09-29T10:45:01.966Z,8.40
2022-09-29T10:47:30.777Z,8.40
2022-09-29T10:50:16.407Z,8.90
2022-09-29T10:52:52.981Z,10.60
2022-09-29T10:55:23.675Z,8.40
2022-09-29T10:57:54.339Z,9.50
2022-09-29T11:00:32.573Z,8.90
2022-09-29T11:03:19.580Z,9.50
2022-09-29T11:05:54.449Z,10.20
2022-09-29T11:08:27.138Z,8.70
2022-09-29T11:11:06.891Z,9.80
2022-09-29T11:13:40.334Z,9.90
2022-09-29T11:16:17.009Z,8.20
2022-09-29T11:18:52.652Z,10.40
2022-09-29T11:22:10.386Z,9.60
2022-09-29T11:25:01.378Z,9.50
2022-09-29T11:27:43.879Z,8.30
2022-09-29T11:30:17.347Z,6.70
2022-09-29T11:33:11.881Z,9.20
2022-09-29T11:35:57.081Z,10.20
2022-09-29T11:38:45.153Z,8.00
2022-09-29T11:41:42.008Z,9.30
2022-09-29T11:44:32.013Z,9.00
2022-09-29T11:47:12.506Z,8.30
2022-09-29T11:49:59.027Z,9.20
2022-09-29T11:52:42.088Z,9.50
2022-09-29T11:55:38.524Z,9.40
2022-09-29T11:58:32.476Z,10.70
2022-09-29T12:01:21.577Z,7.80
2022-09-29T12:03:56.296Z,6.70
2022-09-29T12:06:41.383Z,10.30
2022-09-29T12:09:32.681Z,9.20
2022-09-29T12:12:23.068Z,11.10
2022-09-29T12:15:10.186Z,10.10
2022-09-29T12:17:43.064Z,10.10
2022-09-29T12:20:20.283Z,8.20
2022-09-29T12:22:53.047Z,8.10
2022-09-29T12:25:28.911Z,8.30
2022-09-29T12:28:05.458Z,9.30
2022-09-29T12:30:43.351Z,7.70
2022-09-29T12:33:20.885Z,9.60
2022-09-29T12:35:59.909Z,10.40
2022-09-29T12:38:36.534Z,9.80
2022-09-29T12:41:13.417Z,11.10
2022-09-29T12:43:51.446Z,9.50
2022-09-29T12:49:05.374Z,8.10
2022-09-29T12:51:39.548Z,9.00
2022-09-29T12:54:17.447Z,9.50
2022-09-29T12:56:53.820Z,8.80
2022-09-29T12:59:32.840Z,8.30
2022-09-29T13:02:21.845Z,10.00
2022-09-29T13:05:05.808Z,8.90
2022-09-29T13:08:04.167Z,8.70
2022-09-29T13:10:48.058Z,8.60
2022-09-29T13:14:04.851Z,9.30
2022-09-29T13:17:08.280Z,7.50
2022-09-29T13:19:59.768Z,7.30
2022-09-29T13:22:53.964Z,8.20
2022-09-29T13:25:32.969Z,10.50
2022-09-29T13:28:22.268Z,13.10
2022-09-29T13:30:56.085Z,11.60
2022-09-29T13:33:26.598Z,10.20
2022-09-29T13:35:56.118Z,9.00
2022-09-29T13:38:27.178Z,12.00
2022-09-29T13:41:17.842Z,7.10
2022-09-29T13:44:06.931Z,8.10
2022-09-29T13:46:40.504Z,7.70
2022-09-29T13:49:27.658Z,8.60
2022-09-29T13:51:57.742Z,9.10
2022-09-29T13:54:34.846Z,8.10
2022-09-29T13:57:28.498Z,9.40
2022-09-29T14:00:20.395Z,6.80
2022-09-29T14:03:29.122Z,8.30
2022-09-29T14:06:36.119Z,9.60
2022-09-29T14:09:03.214Z,8.40
2022-09-29T14:11:36.415Z,10.90
2022-09-29T14:14:09.213Z,8.50
2022-09-29T14:16:47.148Z,7.10
2022-09-29T14:19:46.713Z,7.40
2022-09-29T14:22:51.148Z,9.70
2022-09-29T14:25:48.598Z,8.60
2022-09-29T14:28:24.581Z,11.90
2022-09-29T14:30:55.506Z,8.80
2022-09-29T14:33:30.750Z,9.10
2022-09-29T14:36:07.568Z,8.40
2022-09-29T14:38:41.367Z,9.00
2022-09-29T14:41:33.415Z,11.50
2022-09-29T14:44:11.142Z,8.10
2022-09-29T14:47:20.486Z,6.50
2022-09-29T14:50:27.864Z,7.60
2022-09-29T14:53:20.119Z,6.60
2022-09-29T14:56:01.547Z,9.30
2022-09-29T14:58:44.346Z,10.20
2022-09-29T15:01:23.444Z,9.60
2022-09-29T15:03:54.176Z,8.50
2022-09-29T15:06:25.298Z,10.90
2022-09-29T15:08:59.164Z,7.50
2022-09-29T15:11:37.339Z,8.70
2022-09-29T15:14:24.221Z,9.40
2022-09-29T15:17:05.947Z,13.40
2022-09-29T15:19:56.316Z,12.70
2022-09-29T15:22:52.957Z,9.90
2022-09-29T15:25:28.862Z,13.30
2022-09-29T15:28:01.683Z,11.00
2022-09-29T15:30:34.526Z,11.90
2022-09-29T15:33:24.705Z,10.30
2022-09-29T15:35:57.999Z,9.90
2022-09-29T15:38:37.943Z,13.20
2022-09-29T15:41:16.680Z,12.00
2022-09-29T15:43:53.936Z,11.90
2022-09-29T15:46:29.383Z,12.90
2022-09-29T15:49:20.382Z,8.70
2022-09-29T15:51:58.193Z,12.20
2022-09-29T15:54:31.568Z,10.00
2022-09-29T15:57:20.188Z,16.10
2022-09-29T15:59:53.139Z,10.40
2022-09-29T16:02:29.776Z,11.40
2022-09-29T16:05:02.993Z,11.40
2022-09-29T16:07:34.741Z,13.80
2022-09-29T16:10:13.435Z,15.80
2022-09-29T16:12:49.511Z,12.60
2022-09-29T16:15:28.760Z,12.80
2022-09-29T16:18:05.631Z,11.70
2022-09-29T16:20:36.572Z,11.40
2022-09-29T16:23:17.708Z,16.00
2022-09-29T16:26:10.071Z,13.10
2022-09-29T16:28:43.343Z,13.90
2022-09-29T16:31:26.765Z,13.80
2022-09-29T16:34:00.768Z,14.00
2022-09-29T16:36:33.269Z,17.00
2022-09-29T16:39:04.457Z,15.70
2022-09-29T16:41:36.023Z,14.00
2022-09-29T16:44:20.428Z,11.70
2022-09-29T16:46:52.617Z,11.90
2022-09-29T16:49:25.644Z,11.00
2022-09-29T16:51:57.674Z,14.30
2022-09-29T16:54:31.040Z,11.00
2022-09-29T16:57:21.429Z,19.20
2022-09-29T16:59:53.006Z,17.10
2022-09-29T17:02:23.454Z,17.80
2022-09-29T17:04:53.675Z,22.30
2022-09-29T17:07:24.522Z,20.30
2022-09-29T17:09:56.318Z,21.90
2022-09-29T17:12:30.242Z,19.00
2022-09-29T17:14:59.223Z,19.60
2022-09-29T17:17:28.760Z,21.80
2022-09-29T17:19:57.259Z,18.80
2022-09-29T17:22:30.155Z,18.90
2022-09-29T17:25:07.722Z,24.00
2022-09-29T17:27:54.522Z,19.60
2022-09-29T17:30:24.771Z,19.80
2022-09-29T17:32:57.618Z,23.60
2022-09-29T17:35:30.673Z,23.40
2022-09-29T17:37:59.652Z,19.00
2022-09-29T17:40:34.839Z,20.30
2022-09-29T17:43:03.931Z,16.60
2022-09-29T17:45:34.813Z,18.80
2022-09-29T17:48:04.426Z,21.10
2022-09-29T17:50:36.027Z,19.20
2022-09-29T17:53:04.970Z,21.20
2022-09-29T17:55:34.323Z,18.80
2022-09-29T17:58:03.244Z,24.60
2022-09-29T18:00:37.849Z,21.20
2022-09-29T18:03:08.981Z,25.80
2022-09-29T18:05:39.826Z,22.70
2022-09-29T18:08:13.121Z,23.00
2022-09-29T18:10:44.992Z,24.00
2022-09-29T18:13:13.624Z,26.40
2022-09-29T18:15:43.171Z,24.30
2022-09-29T18:18:15.191Z,42.50
2022-09-29T18:20:45.717Z,52.20
2022-09-29T18:23:15.074Z,34.50
2022-09-29T18:25:47.983Z,63.40
2022-09-29T18:28:17.923Z,71.70
2022-09-29T18:30:49.980Z,78.30
2022-09-29T18:33:21.274Z,76.30
2022-09-29T18:35:53.726Z,92.30
2022-09-29T18:38:22.818Z,96.50
2022-09-29T18:40:53.746Z,89.10
2022-09-29T18:43:24.537Z,74.50
2022-09-29T18:45:55.028Z,80.60
2022-09-29T18:48:28.608Z,69.20
2022-09-29T18:50:56.988Z,67.80
2022-09-29T18:53:25.370Z,76.40
2022-09-29T18:55:58.969Z,83.60
2022-09-29T18:58:27.587Z,68.50
2022-09-29T19:00:56.778Z,67.30
2022-09-29T19:03:27.285Z,56.70
2022-09-29T19:05:56.524Z,50.00
2022-09-29T19:08:26.196Z,53.30
2022-09-29T19:10:57.858Z,52.10
2022-09-29T19:13:26.321Z,108.90
2022-09-29T19:15:58.777Z,197.20
2022-09-29T19:18:27.754Z,96.70
2022-09-29T19:20:59.266Z,78.40
2022-09-29T19:23:28.851Z,60.40
2022-09-29T19:25:57.989Z,73.50
2022-09-29T19:28:26.925Z,81.30
2022-09-29T19:31:04.374Z,87.30
2022-09-29T19:33:32.717Z,86.30
2022-09-29T19:36:04.993Z,76.20
2022-09-29T19:38:34.950Z,86.10
2022-09-29T19:41:04.722Z,84.00
2022-09-29T19:43:33.259Z,95.10
2022-09-29T19:46:08.179Z,86.90
2022-09-29T19:48:37.780Z,84.80
2022-09-29T19:51:24.661Z,84.30
2022-09-29T19:54:09.933Z,68.40
2022-09-29T19:56:40.880Z,65.20
2022-09-29T19:59:10.814Z,70.40
2022-09-29T20:01:40.690Z,66.90
2022-09-29T20:04:11.126Z,67.90
2022-09-29T20:06:39.517Z,104.20
2022-09-29T20:09:08.590Z,78.70
2022-09-29T20:11:38.822Z,71.70
2022-09-29T20:14:10.522Z,69.70
2022-09-29T20:16:41.170Z,72.60
2022-09-29T20:19:13.514Z,64.10
2022-09-29T20:21:42.785Z,60.60
2022-09-29T20:24:13.740Z,59.00
2022-09-29T20:26:43.836Z,57.30
2022-09-29T20:29:12.952Z,61.60
2022-09-29T20:31:41.412Z,55.60
2022-09-29T20:34:11.076Z,67.80
2022-09-29T20:36:39.862Z,63.30
2022-09-29T20:39:09.651Z,69.50
2022-09-29T20:41:38.111Z,76.10
2022-09-29T20:44:06.391Z,79.80
2022-09-29T20:46:35.747Z,64.00
2022-09-29T20:49:04.386Z,68.90
2022-09-29T20:51:37.728Z,65.30
2022-09-29T20:54:06.461Z,69.30
2022-09-29T20:56:41.097Z,80.70
2022-09-29T20:59:12.889Z,93.20
2022-09-29T21:01:42.757Z,77.70
2022-09-29T21:04:13.209Z,77.20
2022-09-29T21:06:43.932Z,74.30
2022-09-29T21:09:14.214Z,70.40
2022-09-29T21:11:43.044Z,85.70
2022-09-29T21:14:15.770Z,78.60
2022-09-29T21:16:45.732Z,78.40
2022-09-29T21:19:14.464Z,76.00
2022-09-29T21:21:43.344Z,80.40
2022-09-29T21:24:13.846Z,75.10
2022-09-29T21:26:43.968Z,71.20
2022-09-29T21:29:16.850Z,68.40
2022-09-29T21:31:45.195Z,59.30
2022-09-29T21:34:14.682Z,70.30
2022-09-29T21:36:43.222Z,73.30
2022-09-29T21:39:14.103Z,61.50
2022-09-29T21:41:44.046Z,60.10
2022-09-29T21:44:14.844Z,58.60
2022-09-29T21:46:44.683Z,60.30
2022-09-29T21:49:20.383Z,61.90
2022-09-29T21:51:50.522Z,60.90
2022-09-29T21:54:24.305Z,58.70
2022-09-29T21:56:53.146Z,51.00
2022-09-29T21:59:23.290Z,57.10
2022-09-29T22:01:52.332Z,57.30
2022-09-29T22:04:27.171Z,55.60
2022-09-29T22:06:55.619Z,56.20
2022-09-29T22:09:25.720Z,47.50
2022-09-29T22:11:54.760Z,56.20
2022-09-29T22:14:24.228Z,52.30
2022-09-29T22:16:53.672Z,58.90
2022-09-29T22:19:25.922Z,57.30
2022-09-29T22:21:54.944Z,61.20
2022-09-29T22:24:26.040Z,55.20
2022-09-29T22:26:54.588Z,59.60
2022-09-29T22:29:23.554Z,61.10
2022-09-29T22:31:52.334Z,55.10
2022-09-29T22:34:23.052Z,56.90
2022-09-29T22:36:51.418Z,57.80
2022-09-29T22:39:21.481Z,69.10
2022-09-29T22:41:52.409Z,60.90
2022-09-29T22:44:21.747Z,65.90
2022-09-29T22:46:50.048Z,67.70
2022-09-29T22:49:21.223Z,58.70
2022-09-29T22:51:50.006Z,60.50
2022-09-29T22:54:18.486Z,66.40
2022-09-29T22:56:48.180Z,61.20
2022-09-29T22:59:16.970Z,53.10
2022-09-29T23:01:47.030Z,55.80
2022-09-29T23:04:15.457Z,53.70
2022-09-29T23:06:44.170Z,48.80
2022-09-29T23:09:12.886Z,51.60
2022-09-29T23:11:41.347Z,51.80
2022-09-29T23:14:11.050Z,50.40
2022-09-29T23:16:39.450Z,47.00
2022-09-29T23:19:07.815Z,47.20
2022-09-29T23:21:36.220Z,49.90
2022-09-29T23:24:06.311Z,54.00
2022-09-29T23:26:34.691Z,52.40
2022-09-29T23:29:03.467Z,54.40
2022-09-29T23:31:31.841Z,52.90
2022-09-29T23:34:00.672Z,50.30
2022-09-29T23:36:30.976Z,50.90
2022-09-29T23:39:13.385Z,43.50
2022-09-29T23:41:44.175Z,44.70
2022-09-29T23:44:15.311Z,43.50
2022-09-29T23:46:45.818Z,43.70
2022-09-29T23:49:17.202Z,40.40
2022-09-29T23:51:47.314Z,42.40
2022-09-29T23:54:17.851Z,41.50
2022-09-29T23:56:48.147Z,35.30
2022-09-29T23:59:17.122Z,34.60
